This is the latest recevied weather packets stored in our database for station/object IW4DZV-13. If no packets are shown the sender has not sent any weather packets the latest 10 day(s).
| Time | Temp. | Humidity | Pressure | Rain* | Wind** | Luminosity | Snow |
|---|---|---|---|---|---|---|---|
| 1777455915 | 22.22° C | 57% | 1015.5 hPa | 0 mm | - | 779 W/m² | - |
| 1777455016 | 22.22° C | 57% | 1015.6 hPa | 0 mm | - | 246 W/m² | - |
| 1777454112 | 22.22° C | 58% | 1015.6 hPa | 0 mm | - | 673 W/m² | - |
| 1777453213 | 21.67° C | 59% | 1015.6 hPa | 0 mm | - | 733 W/m² | - |
| 1777452307 | 21.11° C | 62% | 1015.6 hPa | 0 mm | - | 737 W/m² | - |
| 1777451405 | 20° C | 66% | 1015.6 hPa | 0 mm | - | 394 W/m² | - |
| 1777450501 | 20° C | 67% | 1015.5 hPa | 0 mm | - | 487 W/m² | - |
| 1777449663 | 20° C | 67% | 1015.5 hPa | 0 mm | - | 267 W/m² | - |
| 1777448757 | 19.44° C | 69% | 1015.4 hPa | 0 mm | - | 301 W/m² | - |
| 1777447855 | 18.89° C | 70% | 1015.5 hPa | 0 mm | - | 487 W/m² | - |
| 1777446959 | 18.33° C | 71% | 1015.4 hPa | 0 mm | - | 443 W/m² | - |
| 1777446049 | 17.78° C | 74% | 1015.3 hPa | 0 mm | - | 364 W/m² | - |
| 1777445145 | 16.67° C | 77% | 1015.3 hPa | 0 mm | - | 325 W/m² | - |
| 1777444240 | 15.56° C | 78% | 1015.1 hPa | 0 mm | - | 288 W/m² | - |
| 1777443335 | 15° C | 79% | 1015 hPa | 0 mm | - | 141 W/m² | - |
| 1777442434 | 14.44° C | 81% | 1014.9 hPa | 0 mm | - | 128 W/m² | - |
| 1777441533 | 13.89° C | 84% | 1014.9 hPa | 0 mm | - | 137 W/m² | - |
| 1777440629 | 12.78° C | 86% | 1014.8 hPa | 0 mm | - | 81 W/m² | - |
| 1777439726 | 12.78° C | 87% | 1014.8 hPa | 0 mm | - | 42 W/m² | - |
| 1777438831 | 12.78° C | 88% | 1014.8 hPa | 0 mm | - | 28 W/m² | - |
| 1777437934 | 12.22° C | 89% | 1014.8 hPa | 0 mm | - | 23 W/m² | - |
| 1777437040 | 12.22° C | 89% | 1014.7 hPa | 0 mm | - | 16 W/m² | - |
| 1777436119 | 12.22° C | 88% | 1014.7 hPa | 0 mm | - | 0 W/m² | - |
| 1777435218 | 12.22° C | 88% | 1014.7 hPa | 0 mm | - | 0 W/m² | - |
| 1777434333 | 12.78° C | 88% | 1014.7 hPa | 0 mm | - | 0 W/m² | - |
* Rain since midnight (hover to see other rain measurements)
** Current wind speed in m/s (hover to see current wind gust speed)